Time;durP1;ratioP1;P1;durP2;ratioP2;P2;SDS_P1;SDS_P2;PMS_P1;PMS_P2;Temp;Humidity;BMP_temperature;BMP_pressure;BME280_temperature;BME280_humidity;BME280_pressure;Samples;Min_cycle;Max_cycle;Signal;HPM_P1;HPM_P2
2022/06/10 00:00:20;;;;;;;12.45;5.18;;;;;;;11.28;100.00;102043.44;5115668;28;20031;-73
2022/06/10 00:02:46;;;;;;;11.10;5.60;;;;;;;11.20;100.00;102043.50;5116236;28;20034;-73
2022/06/10 00:05:19;;;;;;;11.05;5.00;;;;;;;11.24;100.00;102042.59;5116251;28;20020;-73
2022/06/10 00:07:44;;;;;;;13.30;5.10;;;;;;;11.28;100.00;102041.72;5115859;28;20414;-73
2022/06/10 00:10:13;;;;;;;16.60;5.65;;;;;;;11.24;100.00;102053.03;5116232;28;20285;-73
2022/06/10 00:12:38;;;;;;;12.73;5.63;;;;;;;11.18;100.00;102040.03;5115241;28;20491;-73
2022/06/10 00:15:05;;;;;;;10.00;5.75;;;;;;;11.20;100.00;102039.13;5115960;28;20060;-73
2022/06/10 00:17:31;;;;;;;14.13;5.43;;;;;;;11.18;100.00;102050.47;5116012;28;20024;-73
2022/06/10 00:19:57;;;;;;;17.50;6.13;;;;;;;11.19;100.00;102039.16;5115024;28;20404;-72
2022/06/10 00:22:23;;;;;;;12.23;5.53;;;;;;;11.22;100.00;102031.31;5116022;28;20494;-73
2022/06/10 00:24:51;;;;;;;14.00;5.63;;;;;;;11.26;100.00;102038.25;5115599;28;20475;-73
2022/06/10 00:27:16;;;;;;;17.08;5.85;;;;;;;11.36;100.00;102045.13;5115255;28;20019;-73
2022/06/10 00:29:41;;;;;;;11.18;5.45;;;;;;;11.42;100.00;102047.69;5115075;28;20023;-73
2022/06/10 00:32:07;;;;;;;13.60;5.40;;;;;;;11.45;100.00;102033.75;5115875;28;20030;-73
2022/06/10 00:34:35;;;;;;;11.00;6.03;;;;;;;11.49;100.00;102035.44;5115012;28;20023;-73
2022/06/10 00:37:03;;;;;;;11.45;5.70;;;;;;;11.53;100.00;102037.16;5115397;28;20031;-73
2022/06/10 00:39:28;;;;;;;15.93;5.47;;;;;;;11.59;100.00;102041.47;5115549;28;20034;-73
2022/06/10 00:41:53;;;;;;;14.27;5.82;;;;;;;11.58;100.00;102029.28;5114340;28;20024;-73
2022/06/10 00:44:34;;;;;;;11.98;5.22;;;;;;;11.65;100.00;102037.06;5115690;28;20020;-73
2022/06/10 00:47:01;;;;;;;13.25;5.45;;;;;;;11.73;100.00;102035.22;5115103;28;20498;-73
2022/06/10 00:49:31;;;;;;;13.52;4.80;;;;;;;11.77;100.00;102037.81;5114760;28;20020;-73
2022/06/10 00:51:57;;;;;;;14.95;5.25;;;;;;;11.80;100.00;102028.19;5115248;28;20016;-73
2022/06/10 00:54:35;;;;;;;9.98;5.35;;;;;;;11.90;100.00;102029.00;5115475;28;20072;-73
2022/06/10 00:57:14;;;;;;;7.68;4.68;;;;;;;11.98;100.00;102035.03;5114862;28;20078;-73
2022/06/10 00:59:52;;;;;;;14.25;4.68;;;;;;;12.06;100.00;102033.19;5115219;28;20031;-73
2022/06/10 01:02:23;;;;;;;11.48;4.63;;;;;;;12.10;100.00;102026.22;5114391;28;20088;-73
2022/06/10 01:04:48;;;;;;;13.70;4.68;;;;;;;12.17;100.00;102030.47;5115096;28;20027;-73
2022/06/10 01:07:21;;;;;;;11.95;5.10;;;;;;;12.22;100.00;102030.41;5115271;28;20019;-73
2022/06/10 01:09:49;;;;;;;17.17;5.20;;;;;;;12.25;100.00;102026.00;5114112;28;20020;-73
2022/06/10 01:12:36;;;;;;;10.82;4.30;;;;;;;12.31;100.00;102027.69;5115027;28;20401;-73
2022/06/10 01:15:23;;;;;;;13.82;4.30;;;;;;;12.36;100.00;102033.72;5114526;28;20031;-73
2022/06/10 01:18:10;;;;;;;8.70;4.07;;;;;;;12.37;100.00;102028.50;5113698;28;20533;-73
2022/06/10 01:20:51;;;;;;;12.20;4.10;;;;;;;12.38;100.00;102024.97;5114965;28;20043;-73
2022/06/10 01:23:19;;;;;;;10.63;4.00;;;;;;;12.43;99.76;102032.78;5113944;28;20024;-73
2022/06/10 01:25:56;;;;;;;8.27;3.78;;;;;;;12.40;98.85;102028.44;5114340;28;20487;-73
2022/06/10 01:29:02;;;;;;;11.90;3.92;;;;;;;12.44;99.06;102025.81;5114822;28;20024;-73
2022/06/10 01:31:33;;;;;;;12.82;3.65;;;;;;;12.45;100.00;102031.00;5113859;28;20031;-73
2022/06/10 01:34:20;;;;;;;15.05;4.07;;;;;;;12.47;100.00;102028.38;5114256;28;20038;-73
2022/06/10 01:37:27;;;;;;;10.82;3.97;;;;;;;12.49;100.00;102032.72;5113634;27;20028;-73
2022/06/10 01:40:21;;;;;;;10.18;3.78;;;;;;;12.51;100.00;102032.69;5114154;28;20078;-73
2022/06/10 01:43:10;;;;;;;;;;;;;;;12.54;99.16;102033.50;5114070;28;20019;-73
2022/06/10 01:45:51;;;;;;;14.85;3.85;;;;;;;12.49;99.39;102016.13;5113702;28;19907;-73
2022/06/10 01:48:23;;;;;;;8.20;3.45;;;;;;;12.54;99.21;102035.25;5114189;28;20053;-73
2022/06/10 01:51:12;;;;;;;11.25;3.88;;;;;;;12.57;98.85;102030.00;5113319;28;20108;-73
2022/06/10 01:53:50;;;;;;;10.70;3.70;;;;;;;12.57;96.82;102028.25;5114175;28;20057;-73
2022/06/10 01:56:23;;;;;;;7.82;3.70;;;;;;;12.59;97.76;102030.84;5113982;28;20051;-73
2022/06/10 01:59:08;;;;;;;;;;;;;;;12.65;97.12;102018.56;5113377;28;20032;-73
2022/06/10 02:01:39;;;;;;;7.07;3.45;;;;;;;12.65;98.45;102023.78;5114284;28;19918;-73
2022/06/10 02:04:30;;;;;;;10.50;3.53;;;;;;;12.67;97.38;102030.75;5113929;28;20116;-73
2022/06/10 02:07:05;;;;;;;14.43;3.53;;;;;;;12.64;98.46;102021.19;5112817;28;20051;-73
2022/06/10 02:09:37;;;;;;;12.63;3.70;;;;;;;12.67;98.69;102031.59;5114179;28;20036;-73
2022/06/10 02:12:10;;;;;;;11.13;3.90;;;;;;;12.69;98.44;102032.47;5113250;28;20027;-73
2022/06/10 02:14:40;;;;;;;10.20;4.05;;;;;;;12.69;97.56;102034.19;5114031;28;20027;-73
2022/06/10 02:17:10;;;;;;;7.40;3.53;;;;;;;12.72;98.16;102029.81;5113830;28;20157;-73
2022/06/10 02:19:42;;;;;;;12.07;3.67;;;;;;;12.71;98.00;102024.56;5112878;28;20026;-73
2022/06/10 02:22:12;;;;;;;8.75;3.60;;;;;;;12.76;96.86;102028.88;5113846;28;20107;-73
2022/06/10 02:24:43;;;;;;;10.10;3.83;;;;;;;12.76;97.42;102033.25;5113888;28;20080;-73
2022/06/10 02:27:18;;;;;;;14.98;3.80;;;;;;;12.77;96.99;102038.44;5112983;28;20043;-73
2022/06/10 02:29:53;;;;;;;8.15;3.58;;;;;;;12.80;97.81;102041.00;5113259;28;20023;-73
2022/06/10 02:32:18;;;;;;;12.10;3.25;;;;;;;12.80;97.13;102043.63;5113470;28;20077;-73
2022/06/10 02:34:44;;;;;;;10.13;3.70;;;;;;;12.80;98.40;102038.41;5112665;28;20023;-73
2022/06/10 02:37:20;;;;;;;13.00;3.60;;;;;;;12.82;97.35;102041.00;5113605;28;20043;-73
2022/06/10 02:39:58;;;;;;;10.40;3.25;;;;;;;12.84;97.54;102050.53;5113115;28;20072;-73
2022/06/10 02:43:04;;;;;;;12.43;3.88;;;;;;;12.89;97.51;102045.28;5113287;28;20070;-73
2022/06/10 02:45:40;;;;;;;12.63;3.63;;;;;;;12.85;96.31;102047.06;5113404;28;20154;-73
2022/06/10 02:48:14;;;;;;;9.82;3.40;;;;;;;12.89;96.73;102058.34;5112650;28;20023;-73
2022/06/10 02:50:39;;;;;;;11.18;3.90;;;;;;;12.89;97.63;102056.59;5113254;28;20047;-73
2022/06/10 02:53:07;;;;;;;11.93;3.28;;;;;;;12.91;97.34;102056.56;5112647;28;20467;-73
2022/06/10 02:55:33;;;;;;;11.57;3.50;;;;;;;12.92;97.62;102053.06;5112443;28;20043;-73
2022/06/10 03:01:12;;;;;;;11.02;3.50;;;;;;;12.95;98.08;102042.56;5112980;28;20120;-73
2022/06/10 03:04:06;;;;;;;11.77;3.47;;;;;;;12.95;98.11;102047.81;5113189;28;20371;-73
2022/06/10 03:07:07;;;;;;;8.75;3.50;;;;;;;12.96;97.28;102043.44;5113177;28;20490;-73
2022/06/10 03:10:19;;;;;;;13.43;3.17;;;;;;;12.97;97.38;102058.25;5112308;28;20034;-73
2022/06/10 03:13:12;;;;;;;12.43;3.90;;;;;;;12.98;96.69;102049.50;5092815;28;20092;-73
2022/06/10 03:15:44;;;;;;;15.52;3.95;;;;;;;12.99;97.54;102059.94;5112383;28;20379;-73
2022/06/10 03:18:34;;;;;;;7.18;3.17;;;;;;;13.01;96.81;102066.00;5113213;28;20028;-73
2022/06/10 03:21:24;;;;;;;10.95;3.50;;;;;;;12.98;96.49;102057.34;5112929;28;20032;-72
2022/06/10 03:24:05;;;;;;;12.43;3.58;;;;;;;13.02;97.14;102067.75;5111922;28;20043;-73
2022/06/10 03:26:50;;;;;;;9.73;3.10;;;;;;;12.99;97.46;102059.09;5112847;28;20371;-73
2022/06/10 03:30:02;;;;;;;12.25;3.60;;;;;;;13.06;96.37;102073.81;5112382;28;20364;-73
2022/06/10 03:32:36;;;;;;;7.03;2.97;;;;;;;13.06;98.24;102071.19;5112206;28;20035;-73
2022/06/10 03:35:09;;;;;;;13.80;3.20;;;;;;;13.06;97.36;102063.34;5112818;28;20041;-73
2022/06/10 03:37:41;;;;;;;14.45;3.47;;;;;;;13.07;97.46;102068.53;5112003;28;20445;-73
2022/06/10 03:40:13;;;;;;;11.95;3.80;;;;;;;13.07;98.09;102075.53;5113035;28;20027;-73
2022/06/10 03:42:46;;;;;;;10.02;3.33;;;;;;;13.11;99.00;102071.97;5112893;28;20030;-73
2022/06/10 03:45:16;;;;;;;10.50;4.05;;;;;;;13.09;98.71;102066.78;5112051;28;20031;-73
2022/06/10 03:47:42;;;;;;;4.85;2.88;;;;;;;13.13;99.74;102051.91;5112683;28;20019;-73
2022/06/10 03:50:12;;;;;;;9.95;3.05;;;;;;;13.12;96.65;102058.03;5112971;28;20376;-73
2022/06/10 03:52:40;;;;;;;12.30;3.22;;;;;;;13.12;97.62;102061.50;5111840;28;20468;-73
2022/06/10 03:55:07;;;;;;;10.73;3.58;;;;;;;13.11;97.41;102062.41;5112666;28;20023;-73
2022/06/10 03:57:34;;;;;;;11.30;3.20;;;;;;;13.18;97.88;102070.13;5111713;28;20051;-73
2022/06/10 03:59:59;;;;;;;9.40;3.08;;;;;;;13.19;98.34;102077.13;5112449;28;20028;-73
2022/06/10 04:02:25;;;;;;;10.50;3.38;;;;;;;13.19;97.78;102071.91;5112821;28;20107;-73
2022/06/10 04:04:51;;;;;;;9.60;3.30;;;;;;;13.21;98.36;102068.38;5112894;28;20023;-73
2022/06/10 04:07:19;;;;;;;15.63;3.55;;;;;;;13.24;97.01;102075.28;5116433;28;20057;-72
2022/06/10 04:09:48;;;;;;;6.28;3.13;;;;;;;13.25;98.20;102077.94;5115996;28;20047;-73
2022/06/10 04:12:15;;;;;;;10.73;3.00;;;;;;;13.22;97.98;102070.09;5115332;28;20023;-73
2022/06/10 04:14:41;;;;;;;8.80;3.42;;;;;;;13.30;97.56;102081.34;5115801;28;20036;-73
2022/06/10 04:17:06;;;;;;;10.77;3.63;;;;;;;13.32;96.93;102076.94;5116308;28;20020;-73
2022/06/10 04:19:31;;;;;;;7.95;3.00;;;;;;;13.37;98.12;102076.00;5115370;28;20076;-73
2022/06/10 04:21:57;;;;;;;10.45;3.03;;;;;;;13.40;97.70;102081.19;5115832;28;20068;-73
2022/06/10 04:24:22;;;;;;;7.13;2.60;;;;;;;13.37;98.25;102084.72;5115874;28;20030;-73
2022/06/10 04:26:48;;;;;;;8.43;2.80;;;;;;;13.39;98.63;102100.44;5114771;28;20490;-73
2022/06/10 04:29:14;;;;;;;9.55;3.25;;;;;;;13.42;99.00;102092.53;5116005;28;20035;-73
2022/06/10 04:31:40;;;;;;;8.95;2.80;;;;;;;13.46;100.00;102089.84;5116025;28;20138;-73
2022/06/10 04:34:07;;;;;;;11.73;3.47;;;;;;;13.46;99.67;102086.34;5115366;28;20106;-73
2022/06/10 04:36:32;;;;;;;11.65;3.00;;;;;;;13.48;100.00;102087.19;5115773;28;20415;-73
2022/06/10 04:38:57;;;;;;;9.63;2.80;;;;;;;13.49;100.00;102086.31;5115355;28;20107;-73
2022/06/10 04:41:23;;;;;;;9.80;2.90;;;;;;;13.49;100.00;102081.06;5114759;28;20521;-73
2022/06/10 04:43:48;;;;;;;13.05;2.97;;;;;;;13.55;100.00;102086.22;5115454;28;20099;-73
2022/06/10 04:46:32;;;;;;;12.27;3.25;;;;;;;13.58;100.00;102091.41;5115560;28;20027;-73
2022/06/10 04:48:59;;;;;;;10.63;3.22;;;;;;;13.57;100.00;102095.78;5114951;28;20028;-73
2022/06/10 04:51:24;;;;;;;11.18;3.65;;;;;;;13.58;100.00;102094.88;5115393;28;20027;-73
2022/06/10 04:53:50;;;;;;;13.77;3.60;;;;;;;13.58;100.00;102092.25;5114031;28;20034;-73
2022/06/10 04:56:15;;;;;;;13.30;3.53;;;;;;;13.58;100.00;102094.03;5115313;28;20036;-73
2022/06/10 04:58:41;;;;;;;13.68;3.53;;;;;;;13.56;100.00;102086.16;5115051;28;20062;-73
2022/06/10 05:01:06;;;;;;;10.73;3.75;;;;;;;13.61;100.00;102096.59;5114627;28;20015;-73
2022/06/10 05:03:32;;;;;;;10.20;3.05;;;;;;;13.63;99.97;102092.19;5115159;28;20081;-72
2022/06/10 05:05:58;;;;;;;15.65;3.38;;;;;;;13.63;98.57;102084.31;5114938;28;20027;-72
2022/06/10 05:08:23;;;;;;;11.18;3.65;;;;;;;13.69;100.00;102084.22;5114245;28;20047;-73
2022/06/10 05:10:48;;;;;;;13.27;3.72;;;;;;;13.66;99.35;102086.88;5115038;28;20479;-72
2022/06/10 05:13:20;;;;;;;11.38;3.55;;;;;;;13.73;99.45;102090.28;5115008;28;20468;-73
2022/06/10 05:15:46;;;;;;;13.02;4.15;;;;;;;13.78;98.83;102088.44;5113755;28;20027;-73
2022/06/10 05:18:14;;;;;;;9.52;3.25;;;;;;;13.86;99.58;102085.69;5114962;27;20024;-73
2022/06/10 05:20:41;;;;;;;11.55;3.58;;;;;;;13.91;99.52;102086.50;5114664;28;20016;-73
2022/06/10 05:23:12;;;;;;;11.80;4.10;;;;;;;13.94;98.38;102084.69;5114119;28;20024;-73
2022/06/10 05:25:39;;;;;;;11.23;3.28;;;;;;;14.03;99.31;102083.66;5115056;28;20047;-73
2022/06/10 05:28:05;;;;;;;11.32;3.88;;;;;;;14.08;97.71;102078.31;5114353;28;20031;-73
2022/06/10 05:30:33;;;;;;;9.45;3.20;;;;;;;14.15;96.55;102072.91;5113954;28;20034;-73
2022/06/10 05:32:59;;;;;;;13.82;4.35;;;;;;;14.22;95.89;102079.81;5114298;27;20106;-73
2022/06/10 05:35:25;;;;;;;11.50;3.33;;;;;;;14.34;96.60;102069.94;5114529;28;20091;-73
2022/06/10 05:37:51;;;;;;;11.70;3.15;;;;;;;14.48;95.95;102081.88;5113718;28;20023;-73
2022/06/10 05:40:18;;;;;;;10.68;3.22;;;;;;;14.57;95.13;102065.13;5114680;28;20020;-73
2022/06/10 05:42:43;;;;;;;9.15;3.20;;;;;;;14.65;94.73;102081.59;5114250;27;20024;-73
2022/06/10 05:45:11;;;;;;;8.50;2.75;;;;;;;14.72;95.46;102080.56;5113483;28;20034;-73
2022/06/10 05:47:37;;;;;;;10.57;3.55;;;;;;;14.79;93.90;102076.06;5114378;28;20028;-73
2022/06/10 05:50:12;;;;;;;8.18;3.20;;;;;;;14.89;92.45;102076.72;5113070;28;20065;-73
2022/06/10 05:52:38;;;;;;;10.75;2.63;;;;;;;15.03;92.36;102076.41;5114539;28;20143;-73
2022/06/10 05:55:07;;;;;;;9.25;2.67;;;;;;;15.15;90.48;102070.88;5114137;28;20034;-73
2022/06/10 05:57:33;;;;;;;8.77;3.25;;;;;;;15.21;92.08;102068.97;5113179;28;20173;-73
2022/06/10 05:59:58;;;;;;;10.32;3.20;;;;;;;15.29;91.97;102070.56;5113772;28;20110;-73
2022/06/10 06:02:24;;;;;;;8.13;3.15;;;;;;;15.37;90.83;102073.88;5113999;28;20027;-73
2022/06/10 06:04:50;;;;;;;8.13;2.33;;;;;;;15.41;90.89;102065.03;5113104;28;20019;-73
2022/06/10 06:07:25;;;;;;;9.95;3.08;;;;;;;15.56;91.34;102075.13;5114202;28;20047;-73
2022/06/10 06:09:51;;;;;;;9.43;2.63;;;;;;;15.63;90.40;102060.06;5113665;28;20043;-73
2022/06/10 06:12:17;;;;;;;8.13;2.95;;;;;;;15.73;86.88;102072.16;5113074;28;20064;-73
2022/06/10 06:14:43;;;;;;;13.27;2.38;;;;;;;15.81;87.79;102082.47;5113627;28;20031;-73
2022/06/10 06:17:11;;;;;;;10.43;2.47;;;;;;;15.96;86.58;102086.44;5113704;28;20016;-73
2022/06/10 06:19:36;;;;;;;9.80;2.05;;;;;;;16.01;85.09;102084.56;5113149;28;20020;-73
2022/06/10 06:22:02;;;;;;;7.18;2.10;;;;;;;16.02;87.63;102087.19;5113546;28;20034;-73
2022/06/10 06:24:28;;;;;;;5.97;2.20;;;;;;;15.96;85.11;102087.34;5113732;28;20032;-74
2022/06/10 06:26:53;;;;;;;8.27;2.20;;;;;;;15.98;87.23;102093.41;5112377;28;20024;-73
2022/06/10 06:29:20;;;;;;;10.65;2.42;;;;;;;16.00;87.85;102085.47;5113451;28;20027;-73
2022/06/10 06:31:45;;;;;;;7.35;2.22;;;;;;;16.00;87.46;102088.13;5113240;28;20053;-73
2022/06/10 06:34:11;;;;;;;9.57;2.08;;;;;;;16.09;87.54;102093.13;5112815;28;20028;-73
2022/06/10 06:36:42;;;;;;;7.65;2.10;;;;;;;16.17;89.74;102103.44;5113523;28;20034;-73
2022/06/10 06:39:08;;;;;;;6.90;2.30;;;;;;;16.23;85.35;102095.38;5112880;28;20032;-73
2022/06/10 06:41:33;;;;;;;10.98;3.33;;;;;;;16.28;87.16;102107.50;5113483;28;20031;-73
2022/06/10 06:43:59;;;;;;;7.85;2.10;;;;;;;16.34;85.95;102106.47;5113118;28;20387;-73
2022/06/10 06:46:24;;;;;;;14.55;2.42;;;;;;;16.38;86.95;102108.09;5112422;28;20139;-73
2022/06/10 06:48:50;;;;;;;7.25;2.08;;;;;;;16.40;86.50;102103.69;5112998;28;20023;-73
2022/06/10 06:51:15;;;;;;;12.90;3.25;;;;;;;16.42;87.15;102112.41;5113284;28;20039;-73
2022/06/10 06:53:41;;;;;;;5.90;2.28;;;;;;;16.48;86.08;102114.88;5112159;28;20031;-73
2022/06/10 06:56:07;;;;;;;5.95;2.20;;;;;;;16.52;84.87;102119.13;5113172;28;20479;-73
2022/06/10 06:58:32;;;;;;;5.72;1.77;;;;;;;16.56;87.29;102115.50;5113136;28;20031;-73
2022/06/10 07:00:58;;;;;;;6.50;1.90;;;;;;;16.66;86.65;102112.63;5112005;28;20102;-73
2022/06/10 07:03:24;;;;;;;6.80;1.98;;;;;;;16.66;84.81;102102.94;5113405;28;20044;-73
2022/06/10 07:05:49;;;;;;;10.15;2.00;;;;;;;16.72;85.60;102117.72;5113048;28;20023;-73
2022/06/10 07:08:15;;;;;;;5.28;2.00;;;;;;;16.77;86.18;102114.03;5112417;28;20020;-73
2022/06/10 07:10:41;;;;;;;5.43;1.95;;;;;;;16.74;84.11;102111.50;5112872;28;20391;-73
2022/06/10 07:13:06;;;;;;;9.38;2.13;;;;;;;16.80;83.90;102105.19;5113027;28;20509;-73
2022/06/10 07:15:32;;;;;;;7.35;2.67;;;;;;;16.94;84.82;102104.78;5112322;28;20032;-73
2022/06/10 07:18:00;;;;;;;8.98;2.10;;;;;;;17.16;81.48;102113.75;5112941;28;20015;-73
2022/06/10 07:20:31;;;;;;;10.27;2.53;;;;;;;17.39;80.08;102104.28;5113076;28;20042;-73
2022/06/10 07:22:59;;;;;;;7.70;1.90;;;;;;;17.59;81.13;102103.63;5111956;28;20107;-73
2022/06/10 07:25:25;;;;;;;9.50;2.97;;;;;;;17.74;79.36;102106.63;5112891;28;20027;-73
2022/06/10 07:27:52;;;;;;;10.80;2.40;;;;;;;17.76;78.75;102115.41;5112705;28;20563;-73
2022/06/10 07:30:19;;;;;;;7.60;2.00;;;;;;;17.69;80.79;102119.13;5112347;28;20016;-73
2022/06/10 07:32:45;;;;;;;8.82;1.92;;;;;;;17.62;80.09;102109.66;5112691;28;20089;-73
2022/06/10 07:35:12;;;;;;;5.40;2.03;;;;;;;17.48;80.84;102117.16;5113037;28;20070;-73
2022/06/10 07:37:37;;;;;;;9.40;2.45;;;;;;;17.46;82.17;102117.22;5112137;28;20053;-73
2022/06/10 07:40:04;;;;;;;5.05;2.00;;;;;;;17.44;80.36;102113.78;5114263;27;20106;-73
2022/06/10 07:42:30;;;;;;;6.63;2.58;;;;;;;17.34;79.46;102114.97;5115854;28;20032;-73
2022/06/10 07:44:55;;;;;;;5.38;1.98;;;;;;;17.24;82.90;102111.78;5116646;28;20050;-73
2022/06/10 07:47:21;;;;;;;7.65;2.25;;;;;;;17.27;82.27;102114.31;5116937;28;20486;-73
2022/06/10 07:49:47;;;;;;;8.88;1.88;;;;;;;17.27;82.55;102118.72;5115595;28;20027;-73
2022/06/10 07:52:13;;;;;;;7.70;2.25;;;;;;;17.18;81.24;102109.31;5116506;28;20386;-73
2022/06/10 07:54:38;;;;;;;6.82;1.88;;;;;;;17.24;80.18;102110.91;5116562;28;20486;-73
2022/06/10 07:57:06;;;;;;;10.55;2.10;;;;;;;17.41;78.95;102105.09;5114919;27;20048;-73
2022/06/10 07:59:32;;;;;;;6.85;1.77;;;;;;;17.70;82.22;102098.88;5116723;28;20027;-73
2022/06/10 08:01:57;;;;;;;7.53;2.00;;;;;;;17.91;80.08;102098.16;5116352;28;20131;-73
2022/06/10 08:04:22;;;;;;;6.70;2.25;;;;;;;18.27;77.80;102099.59;5115697;28;20068;-73
2022/06/10 08:06:48;;;;;;;6.97;1.58;;;;;;;18.58;78.04;102107.28;5116022;28;20024;-73
2022/06/10 08:09:15;;;;;;;5.90;2.00;;;;;;;18.79;74.97;102105.63;5116289;28;20034;-73
2022/06/10 08:11:41;;;;;;;8.27;1.90;;;;;;;19.01;74.55;102111.81;5115078;28;20051;-74
2022/06/10 08:14:07;;;;;;;6.47;1.90;;;;;;;19.12;71.14;102104.31;5116325;28;20146;-78
2022/06/10 08:16:33;;;;;;;4.93;1.52;;;;;;;19.20;72.15;102117.25;5116304;28;20099;-73
2022/06/10 08:18:59;;;;;;;5.57;1.88;;;;;;;19.28;69.55;102116.94;5115349;28;20023;-74
2022/06/10 08:24:08;;;;;;;;;;;;;;;19.52;74.71;102112.44;5116710;28;20162;-73
2022/06/10 08:26:34;;;;;;;7.60;2.23;;;;;;;19.47;67.82;102110.00;5115359;28;19953;-73
2022/06/10 08:29:01;;;;;;;7.05;1.90;;;;;;;19.44;69.53;102111.91;5115833;28;20026;-73
2022/06/10 08:31:27;;;;;;;4.70;1.48;;;;;;;19.33;70.74;102109.69;5115969;28;20030;-73
2022/06/10 08:33:52;;;;;;;6.85;1.95;;;;;;;19.18;71.05;102121.72;5114780;28;20023;-74
2022/06/10 08:36:18;;;;;;;12.52;2.60;;;;;;;18.99;71.59;102124.22;5115803;28;20028;-73
2022/06/10 08:38:43;;;;;;;9.25;2.50;;;;;;;18.89;70.23;102118.41;5114525;28;20108;-73
2022/06/10 08:41:14;;;;;;;7.57;2.20;;;;;;;18.88;68.79;102118.50;5115825;28;20047;-73
2022/06/10 08:43:54;;;;;;;6.72;2.40;;;;;;;19.12;71.30;102117.53;5115801;28;20127;-74
2022/06/10 08:47:02;;;;;;;8.30;2.70;;;;;;;19.42;71.97;102102.25;5114873;28;20160;-74
2022/06/10 08:49:55;;;;;;;11.32;2.35;;;;;;;19.72;70.91;102106.34;5115810;28;20043;-73
2022/06/10 08:52:29;;;;;;;12.55;3.03;;;;;;;19.78;66.93;102106.09;5115460;28;20059;-74
2022/06/10 08:55:11;;;;;;;7.93;2.90;;;;;;;19.90;68.82;102094.16;5114554;27;20038;-73
2022/06/10 08:57:44;;;;;;;10.57;2.92;;;;;;;19.98;68.96;102092.03;5115188;28;20048;-74
2022/06/10 09:00:31;;;;;;;12.95;3.10;;;;;;;19.90;70.16;102091.50;5114738;28;20083;-74
2022/06/10 09:03:06;;;;;;;8.40;2.15;;;;;;;19.84;68.54;102092.63;5114856;27;20027;-73
2022/06/10 09:05:38;;;;;;;8.43;2.80;;;;;;;19.80;68.95;102083.94;5115202;28;20049;-74
2022/06/10 09:08:12;;;;;;;10.57;3.23;;;;;;;19.93;70.48;102081.63;5114270;28;20024;-74
2022/06/10 09:10:44;;;;;;;7.68;2.42;;;;;;;20.01;68.61;102089.25;5115114;28;20281;-73
2022/06/10 09:13:39;;;;;;;9.95;3.17;;;;;;;20.05;69.18;102097.00;5114921;28;20456;-74
2022/06/10 09:16:29;;;;;;;13.00;2.95;;;;;;;20.16;69.29;102093.88;5110928;28;20040;-74
2022/06/10 09:19:13;;;;;;;10.13;2.80;;;;;;;20.04;68.49;102094.41;5114581;28;20486;-73
2022/06/10 09:21:57;;;;;;;8.10;2.75;;;;;;;19.85;70.66;102102.28;5114116;28;20084;-74
2022/06/10 09:24:28;;;;;;;;;;;;;;;19.78;71.48;102092.88;5115327;28;20421;-73
2022/06/10 09:27:05;;;;;;;6.82;2.70;;;;;;;19.79;71.33;102100.75;5114564;28;20002;-74
2022/06/10 09:29:30;;;;;;;10.68;3.05;;;;;;;20.11;70.17;102102.03;5114085;28;20050;-73
2022/06/10 09:32:08;;;;;;;10.93;3.00;;;;;;;20.39;68.96;102106.09;5114279;28;20463;-74
2022/06/10 09:34:53;;;;;;;6.28;2.60;;;;;;;20.74;67.85;102107.19;5114613;28;20027;-74
2022/06/10 09:37:34;;;;;;;7.80;2.88;;;;;;;21.27;66.24;102097.63;5113512;28;20027;-74
2022/06/10 09:40:38;;;;;;;7.88;2.70;;;;;;;21.59;65.48;102096.06;5114412;28;20081;-74
2022/06/10 09:43:19;;;;;;;9.70;2.83;;;;;;;21.77;63.81;102098.72;5113421;28;20032;-74
2022/06/10 09:45:57;;;;;;;9.90;2.38;;;;;;;21.99;64.34;102102.00;5114133;28;20028;-74
2022/06/10 09:48:22;;;;;;;8.63;3.10;;;;;;;22.02;63.65;102093.88;5114449;28;20019;-73
2022/06/10 09:51:25;;;;;;;11.63;2.70;;;;;;;22.20;64.81;102102.72;5113255;28;20375;-74
2022/06/10 09:54:19;;;;;;;13.10;3.58;;;;;;;22.16;63.20;102099.34;5113906;28;20099;-74
2022/06/10 09:57:02;;;;;;;8.45;2.88;;;;;;;22.07;62.57;102101.59;5113239;28;20047;-74
2022/06/10 09:59:40;;;;;;;9.35;3.17;;;;;;;22.12;64.91;102096.94;5114181;28;20546;-74
2022/06/10 10:02:31;;;;;;;16.13;3.53;;;;;;;22.48;62.28;102103.94;5113170;28;20031;-74
2022/06/10 10:05:20;;;;;;;10.32;3.05;;;;;;;22.80;62.23;102097.72;5113024;27;20460;-74
2022/06/10 10:07:57;;;;;;;6.75;2.63;;;;;;;23.19;62.89;102095.63;5113967;28;20474;-74
2022/06/10 10:10:43;;;;;;;10.75;2.80;;;;;;;23.48;61.93;102094.78;5113038;28;20032;-74
2022/06/10 10:13:51;;;;;;;9.98;2.60;;;;;;;23.64;60.55;102102.72;5114298;28;20028;-74
2022/06/10 10:16:53;;;;;;;8.25;2.83;;;;;;;23.51;60.67;102102.59;5111814;28;20039;-74
2022/06/10 10:19:40;;;;;;;9.15;3.22;;;;;;;23.28;61.34;102095.06;5083756;28;20040;-74
2022/06/10 10:22:39;;;;;;;10.07;2.92;;;;;;;22.89;61.08;102099.88;5113779;28;20031;-74
2022/06/10 10:25:11;;;;;;;7.93;3.08;;;;;;;22.37;58.29;102097.38;5112582;28;20032;-74
2022/06/10 10:27:37;;;;;;;8.80;3.57;;;;;;;22.09;60.65;102100.59;5113892;28;20051;-74
2022/06/10 10:30:14;;;;;;;10.68;2.88;;;;;;;21.85;64.40;102089.44;5113554;28;20428;-74
2022/06/10 10:32:42;;;;;;;7.30;3.30;;;;;;;21.69;65.12;102107.94;5112785;28;20031;-74
2022/06/10 10:35:19;;;;;;;9.45;3.58;;;;;;;21.83;64.16;102106.38;5113526;28;20020;-74
2022/06/10 10:37:55;;;;;;;10.70;3.15;;;;;;;21.57;63.66;102100.59;5113443;28;20379;-74
2022/06/10 10:40:30;;;;;;;9.50;3.30;;;;;;;21.48;64.45;102088.66;5112812;28;20040;-74
2022/06/10 10:42:59;;;;;;;10.68;3.70;;;;;;;21.88;64.93;102088.44;5113252;28;20026;-74
2022/06/10 10:45:31;;;;;;;12.48;3.80;;;;;;;22.09;61.09;102082.00;5112587;28;20027;-74
2022/06/10 10:48:10;;;;;;;11.43;3.40;;;;;;;21.97;63.56;102083.53;5113080;28;20027;-74
2022/06/10 10:50:38;;;;;;;9.07;3.63;;;;;;;21.97;65.89;102079.97;5113568;28;20039;-74
2022/06/10 10:53:27;;;;;;;10.95;3.65;;;;;;;22.23;66.36;102088.41;5112296;28;20063;-74
2022/06/10 10:55:57;;;;;;;11.10;3.60;;;;;;;22.19;63.91;102085.94;5112739;28;20487;-74
2022/06/10 10:58:29;;;;;;;11.65;3.30;;;;;;;22.52;64.04;102079.75;5113189;28;20081;-74
2022/06/10 11:00:59;;;;;;;13.05;4.07;;;;;;;22.58;61.79;102083.88;5112375;28;20050;-74
2022/06/10 11:03:32;;;;;;;8.68;3.60;;;;;;;22.51;61.08;102085.16;5113373;28;20020;-74
2022/06/10 11:06:03;;;;;;;12.02;3.70;;;;;;;22.60;63.04;102082.88;5112737;28;20032;-74
2022/06/10 11:08:32;;;;;;;9.10;3.60;;;;;;;22.87;63.79;102082.28;5112378;28;20112;-74
2022/06/10 11:11:10;;;;;;;9.95;3.70;;;;;;;23.37;61.53;102081.22;5112681;28;20031;-74
2022/06/10 11:13:46;;;;;;;9.20;3.50;;;;;;;23.77;58.89;102070.94;5113356;28;20031;-74
2022/06/10 11:16:17;;;;;;;10.88;3.30;;;;;;;24.39;61.81;102073.38;5117514;28;20020;-74
2022/06/10 11:18:43;;;;;;;11.82;3.70;;;;;;;24.38;56.66;102072.53;5117002;28;20034;-74
2022/06/10 11:21:08;;;;;;;8.68;3.65;;;;;;;24.15;57.09;102081.09;5116371;28;20016;-74
2022/06/10 11:23:33;;;;;;;10.57;3.50;;;;;;;24.53;62.05;102068.94;5117332;28;20072;-74
2022/06/10 11:26:26;;;;;;;11.05;3.47;;;;;;;24.80;58.87;102070.81;5117022;28;20050;-74
2022/06/10 11:29:07;;;;;;;13.07;4.03;;;;;;;24.95;57.98;102072.50;5112343;28;20104;-74
2022/06/10 11:31:44;;;;;;;10.90;4.22;;;;;;;24.73;55.16;102066.81;5116937;28;20031;-74
2022/06/10 11:34:18;;;;;;;12.23;3.58;;;;;;;24.57;54.83;102071.41;5117109;28;20031;-74
2022/06/10 11:36:47;;;;;;;8.30;3.50;;;;;;;24.58;59.08;102071.31;5115807;28;20378;-74
2022/06/10 11:39:22;;;;;;;14.20;3.92;;;;;;;24.96;58.44;102068.88;5117090;28;20046;-74
2022/06/10 11:42:17;;;;;;;11.13;3.47;;;;;;;24.53;56.48;102071.63;5115622;28;20055;-74
2022/06/10 11:45:06;;;;;;;12.02;3.22;;;;;;;24.84;57.23;102058.97;5116665;28;20032;-75
2022/06/10 11:47:41;;;;;;;10.68;3.00;;;;;;;25.27;52.47;102060.69;5116075;28;20043;-74
2022/06/10 11:50:15;;;;;;;9.10;2.47;;;;;;;25.59;52.74;102061.19;5115958;28;20032;-74